Pagina principală
METAR-TAF:

METAR-TAF

Aeroporturi :

Orange_County_Airport

Orange, Texas, Statele Unite ale Americii

Latitudine: 30-04-09N, longitudine: 093-48-13W, elevație: 4 m

Observații meteo curente

Raportul a fost făcut în urmă cu 24 de minute, la 20:55 UTC
Vânt 6 kt de la Est/Nord-est
Temperatură 33°C
Umiditate 46%
Presiune 1016 hPa
Vizibilitate: 16.1 km
Nori împrăștiați la o înălțime de 4600 picior

METAR: KORG 222055Z AUTO 07006KT 10SM SCT046 33/20 A3000 RMK AO2 T03320204

Ora: 16:19 (21:19 UTC)


TAF: lipsă

Observații și prognoze meteo pentru peste 4.000 de aeroporturi (rapoarte METAR și TAF).

Stațiile disponibile sunt reprezentate pe hartă prin puncte galbene și roșii.

Țineți indicatorul mouse-ului pe punctul dorit pentru a vedea denumirea stației.

Apoi, faceți clic pentru a vedea observațiile și prognozele meteorologice.

Pentru a schimba harta: Pentru mărire, faceți clic pe butoanele verzi cu cruce neagră; pentru micșorare, pe butonul verde cu o liniuță; pentru hărți învecinate, pe săgețile verzi.


METAR-TAF: